createdAt,value
2023-01-20T00:29:09.370Z,101766.69
2023-01-20T00:32:00.312Z,101765.16
2023-01-20T00:34:40.008Z,101761.19
2023-01-20T00:43:46.884Z,101753.06
2023-01-20T01:25:04.807Z,101739.91
2023-01-20T01:51:30.835Z,101729.25
2023-01-20T01:54:17.469Z,101713.97
2023-01-20T01:56:51.089Z,101720.53
2023-01-20T01:59:30.852Z,101717.63
2023-01-20T02:02:12.090Z,101719.03
2023-01-20T02:04:53.195Z,101720.16
2023-01-20T02:17:03.048Z,101715.69
2023-01-20T02:23:35.221Z,101706.22
2023-01-20T02:26:53.893Z,101724.41
2023-01-20T02:30:13.132Z,101721.75
2023-01-20T02:33:19.296Z,101732.03
2023-01-20T02:36:04.705Z,101723.50
2023-01-20T02:38:55.720Z,101732.84
2023-01-20T02:41:36.345Z,101735.41
2023-01-20T02:44:36.441Z,101741.94
2023-01-20T02:48:01.232Z,101733.59
2023-01-20T02:50:44.765Z,101732.63
2023-01-20T02:59:26.866Z,101738.78
2023-01-20T03:11:44.177Z,101742.97
2023-01-20T03:20:32.194Z,101736.50
2023-01-20T03:26:20.898Z,101732.56
2023-01-20T03:29:21.404Z,101726.16
2023-01-20T03:32:06.395Z,101732.75
2023-01-20T03:41:14.749Z,101734.84
2023-01-20T04:17:19.013Z,101753.84
2023-01-20T04:27:16.551Z,101753.91
2023-01-20T04:38:46.984Z,101756.28
2023-01-20T04:41:47.316Z,101768.47
2023-01-20T04:55:04.937Z,101772.59
2023-01-20T04:57:48.415Z,101782.09
2023-01-20T05:45:47.052Z,101788.53
2023-01-20T10:35:55.502Z,101668.56
2023-01-20T10:38:56.807Z,101672.97
2023-01-20T10:44:50.458Z,101660.31
2023-01-20T10:48:04.759Z,101658.94
2023-01-20T10:51:13.983Z,101656.09
2023-01-20T10:54:16.598Z,101645.16
2023-01-20T10:56:56.983Z,101643.38
2023-01-20T10:59:51.814Z,101638.91
2023-01-20T11:02:28.549Z,101634.47
2023-01-20T11:05:15.190Z,101629.44
2023-01-20T11:07:47.394Z,101631.09
2023-01-20T11:10:26.617Z,101633.28
2023-01-20T11:13:12.780Z,101624.13
2023-01-20T11:15:46.455Z,101628.97
2023-01-20T11:18:17.279Z,101631.38
2023-01-20T11:20:54.219Z,101624.00
2023-01-20T11:23:49.569Z,101625.69
2023-01-20T11:26:31.196Z,101637.53
2023-01-20T11:29:09.627Z,101628.78
2023-01-20T11:31:56.111Z,101620.00
2023-01-20T11:34:39.734Z,101624.38
2023-01-20T11:37:41.795Z,101628.41
2023-01-20T11:40:30.489Z,101627.03
2023-01-20T11:42:59.911Z,101624.38
2023-01-20T11:45:36.182Z,101621.63
2023-01-20T11:48:22.520Z,101627.06
2023-01-20T11:50:56.476Z,101621.63
2023-01-20T11:53:31.150Z,101621.63
2023-01-20T11:56:25.315Z,101617.53
2023-01-20T11:59:05.534Z,101630.53
2023-01-20T12:02:21.159Z,101631.63
2023-01-20T12:05:17.293Z,101635.00
2023-01-20T12:07:50.107Z,101630.84
2023-01-20T12:10:35.885Z,101626.47
2023-01-20T12:13:20.970Z,101640.28
2023-01-20T12:15:55.798Z,101626.16
2023-01-20T12:19:05.048Z,101626.69
2023-01-20T12:22:27.055Z,101636.09
2023-01-20T12:25:10.186Z,101638.47
2023-01-20T12:28:04.497Z,101632.34
2023-01-20T12:31:04.476Z,101636.59
2023-01-20T12:33:40.773Z,101632.34
2023-01-20T12:40:34.047Z,101632.53
2023-01-20T12:43:57.631Z,101625.44
2023-01-20T12:46:42.967Z,101623.47
2023-01-20T12:49:34.823Z,101619.47
2023-01-20T12:52:24.917Z,101617.91
2023-01-20T12:55:25.117Z,101635.34
2023-01-20T12:58:31.459Z,101632.91
2023-01-20T13:01:23.271Z,101638.84
2023-01-20T13:04:31.268Z,101633.38
2023-01-20T13:07:11.891Z,101632.34
2023-01-20T13:10:07.468Z,101636.91
2023-01-20T13:13:04.829Z,101638.19
2023-01-20T13:16:11.617Z,101633.03
2023-01-20T13:19:32.135Z,101626.88
2023-01-20T13:22:13.992Z,101621.22
2023-01-20T13:24:48.021Z,101616.50
2023-01-20T13:27:31.747Z,101621.81
2023-01-20T13:30:12.796Z,101623.13
2023-01-20T13:32:49.016Z,101620.94
2023-01-20T13:35:21.022Z,101614.97
2023-01-20T13:38:03.713Z,101617.25
2023-01-20T13:40:37.110Z,101609.06
2023-01-20T13:43:44.530Z,101617.28
2023-01-20T13:46:17.925Z,101614.63
2023-01-20T13:49:19.836Z,101604.94
2023-01-20T13:51:48.505Z,101611.44
2023-01-20T13:54:29.984Z,101617.88
2023-01-20T13:57:31.321Z,101612.38
2023-01-20T14:00:27.429Z,101614.22
2023-01-20T14:07:12.989Z,101613.34
2023-01-20T14:09:59.694Z,101616.47
2023-01-20T14:15:40.755Z,101612.91
2023-01-20T14:18:15.978Z,101608.53
2023-01-20T14:24:00.458Z,101617.47
2023-01-20T14:26:35.287Z,101619.06
2023-01-20T14:29:08.006Z,101630.81
2023-01-20T14:31:46.272Z,101610.53
2023-01-20T14:37:38.149Z,101619.53
2023-01-20T14:40:30.140Z,101617.59
2023-01-20T14:43:23.940Z,101622.25
2023-01-20T14:45:56.229Z,101631.91
2023-01-20T14:48:34.829Z,101632.75
2023-01-20T14:51:06.886Z,101625.34
2023-01-20T14:53:37.152Z,101631.47
2023-01-20T14:56:25.026Z,101632.41
2023-01-20T14:59:00.526Z,101641.84
2023-01-20T15:04:24.080Z,101641.84
2023-01-20T15:07:01.946Z,101646.13
2023-01-20T15:09:35.919Z,101640.59
2023-01-20T15:15:28.477Z,101630.91
2023-01-20T15:18:27.600Z,101633.34
2023-01-20T15:21:17.175Z,101628.50
2023-01-20T15:23:55.513Z,101629.00
2023-01-20T15:26:39.185Z,101631.16
2023-01-20T15:29:30.976Z,101636.09
2023-01-20T15:32:19.209Z,101625.81
2023-01-20T15:34:49.461Z,101637.31
2023-01-20T15:37:21.106Z,101638.66
2023-01-20T15:42:55.820Z,101641.78
2023-01-20T15:45:31.661Z,101630.66
2023-01-20T15:50:52.745Z,101638.19
2023-01-20T15:53:27.204Z,101635.78
2023-01-20T15:56:06.307Z,101643.09
2023-01-20T15:59:06.380Z,101630.47
2023-01-20T16:01:46.477Z,101631.16
2023-01-20T16:04:20.024Z,101642.59
2023-01-20T16:06:49.286Z,101636.94
2023-01-20T16:09:30.993Z,101657.63
2023-01-20T16:12:05.746Z,101649.34
2023-01-20T16:14:38.328Z,101649.78
2023-01-20T16:17:23.873Z,101658.81
2023-01-20T16:19:54.204Z,101654.81
2023-01-20T16:22:23.589Z,101656.50
2023-01-20T16:24:53.243Z,101654.44
2023-01-20T16:27:23.480Z,101653.31
2023-01-20T16:29:56.590Z,101656.28
2023-01-20T16:32:28.084Z,101655.19
2023-01-20T16:34:59.645Z,101666.88
2023-01-20T16:37:35.908Z,101652.34
2023-01-20T16:40:07.669Z,101638.09
2023-01-20T16:42:43.408Z,101644.06
2023-01-20T16:45:39.974Z,101649.00
2023-01-20T16:51:06.278Z,101631.63
2023-01-20T16:53:47.651Z,101643.47
2023-01-20T16:56:22.083Z,101650.84
2023-01-20T16:58:52.186Z,101653.91
2023-01-20T17:01:29.581Z,101651.25
2023-01-20T17:04:14.170Z,101642.22
2023-01-20T17:12:28.923Z,101646.50
2023-01-20T17:15:00.369Z,101643.09
2023-01-20T17:17:32.790Z,101643.22
2023-01-20T17:25:43.204Z,101639.34
2023-01-20T17:28:12.087Z,101631.19
2023-01-20T17:30:43.714Z,101638.78
2023-01-20T17:33:13.403Z,101634.81
2023-01-20T17:35:44.843Z,101631.31
2023-01-20T17:38:14.530Z,101647.06
2023-01-20T17:40:47.495Z,101636.97
2023-01-20T17:43:18.875Z,101635.88
2023-01-20T17:45:55.897Z,101628.44
2023-01-20T17:48:33.600Z,101630.16
2023-01-20T17:51:10.872Z,101627.69
2023-01-20T17:53:41.748Z,101627.63
2023-01-20T17:56:23.616Z,101625.34
2023-01-20T17:58:59.321Z,101623.38
2023-01-20T18:01:30.785Z,101624.13
2023-01-20T18:04:05.053Z,101620.59
2023-01-20T18:06:55.558Z,101629.72
2023-01-20T18:09:27.690Z,101628.00
2023-01-20T18:11:56.824Z,101629.75
2023-01-20T18:14:27.394Z,101623.69
2023-01-20T18:17:02.182Z,101619.75
2023-01-20T18:19:37.215Z,101613.19
2023-01-20T18:22:14.065Z,101611.69
2023-01-20T18:24:45.774Z,101618.47
2023-01-20T18:27:24.062Z,101615.94
2023-01-20T18:30:02.059Z,101607.44
2023-01-20T18:32:37.748Z,101609.88
2023-01-20T18:35:11.136Z,101604.59
2023-01-20T18:37:48.504Z,101603.84
2023-01-20T18:40:23.127Z,101611.97
2023-01-20T18:42:58.625Z,101607.00
2023-01-20T18:45:30.866Z,101609.13
2023-01-20T18:48:01.799Z,101595.03
2023-01-20T18:56:11.317Z,101598.41
2023-01-20T18:58:48.624Z,101594.19
2023-01-20T19:01:34.626Z,101587.69
2023-01-20T19:04:16.160Z,101591.41
2023-01-20T19:06:55.848Z,101590.44
2023-01-20T19:09:30.184Z,101591.94
2023-01-20T19:14:44.657Z,101586.16
2023-01-20T19:17:14.006Z,101588.19
2023-01-20T19:19:46.397Z,101593.81
2023-01-20T19:22:17.270Z,101587.03
2023-01-20T19:24:50.093Z,101578.72
2023-01-20T19:27:20.169Z,101582.66
2023-01-20T19:29:52.244Z,101578.53
2023-01-20T19:32:20.263Z,101567.28
2023-01-20T19:34:53.810Z,101574.06
2023-01-20T19:37:23.649Z,101578.31
2023-01-20T19:39:56.553Z,101563.31
2023-01-20T19:42:26.355Z,101562.81
2023-01-20T19:44:54.523Z,101568.31
2023-01-20T19:47:26.313Z,101568.13
2023-01-20T19:49:54.857Z,101560.47
2023-01-20T19:52:24.654Z,101550.41
2023-01-20T19:54:52.958Z,101559.22
2023-01-20T19:57:22.910Z,101555.78
2023-01-20T19:59:50.860Z,101563.91
2023-01-20T20:02:22.084Z,101555.34
2023-01-20T20:04:58.794Z,101572.44
2023-01-20T20:07:29.912Z,101553.06
2023-01-20T20:10:00.012Z,101556.44
2023-01-20T20:12:28.905Z,101553.53
2023-01-20T20:15:10.001Z,101548.28
2023-01-20T20:17:43.659Z,101557.47
2023-01-20T20:20:35.558Z,101549.88
2023-01-20T20:23:09.389Z,101557.00
2023-01-20T20:25:38.834Z,101565.91
2023-01-20T20:28:10.095Z,101549.22
2023-01-20T20:30:42.990Z,101547.94
2023-01-20T20:33:14.012Z,101555.28
2023-01-20T20:35:42.047Z,101559.00
2023-01-20T20:38:22.841Z,101556.44
2023-01-20T20:40:59.667Z,101568.09
2023-01-20T20:43:34.318Z,101557.94
2023-01-20T20:46:05.962Z,101559.44
2023-01-20T20:48:44.130Z,101559.53
2023-01-20T20:51:16.187Z,101553.19
2023-01-20T20:53:47.042Z,101555.19
2023-01-20T20:56:19.772Z,101554.97
2023-01-20T20:59:03.056Z,101552.09
2023-01-20T21:01:34.449Z,101557.75
2023-01-20T21:04:04.658Z,101548.84
2023-01-20T21:06:33.451Z,101554.03
2023-01-20T21:09:02.197Z,101542.44
2023-01-20T21:11:36.097Z,101553.91
2023-01-20T21:14:10.699Z,101565.81
2023-01-20T21:19:25.876Z,101563.25
2023-01-20T21:21:53.891Z,101576.56
2023-01-20T21:24:29.618Z,101563.09
2023-01-20T21:27:04.512Z,101556.56
2023-01-20T21:29:42.359Z,101555.44
2023-01-20T21:32:11.238Z,101549.91
2023-01-20T21:34:48.316Z,101563.94
2023-01-20T21:37:21.583Z,101555.22
2023-01-20T21:40:11.905Z,101541.81
2023-01-20T21:42:40.295Z,101554.78
2023-01-20T21:45:12.417Z,101562.75
2023-01-20T21:47:43.665Z,101569.75
2023-01-20T21:50:31.648Z,101569.53
2023-01-20T21:53:00.927Z,101567.44
2023-01-20T21:55:29.162Z,101564.75
2023-01-20T21:58:03.499Z,101571.44
2023-01-20T22:00:34.043Z,101562.00
2023-01-20T22:03:04.337Z,101549.91
2023-01-20T22:05:38.900Z,101556.25
2023-01-20T22:08:10.511Z,101559.88
2023-01-20T22:10:39.883Z,101553.91
2023-01-20T22:13:10.903Z,101559.47
2023-01-20T22:15:49.506Z,101554.16
2023-01-20T22:18:20.532Z,101550.94
2023-01-20T22:20:51.401Z,101566.56
2023-01-20T22:23:23.030Z,101556.50
2023-01-20T22:25:54.984Z,101552.66
2023-01-20T22:28:25.118Z,101553.00
2023-01-20T22:30:55.076Z,101554.69
2023-01-20T22:33:25.124Z,101547.03
2023-01-20T22:35:55.644Z,101556.50
2023-01-20T22:38:25.984Z,101551.81
2023-01-20T22:40:55.190Z,101548.66
2023-01-20T22:43:22.963Z,101555.47
2023-01-20T22:46:00.205Z,101555.97
2023-01-20T22:48:34.904Z,101553.97
2023-01-20T22:51:25.529Z,101546.97
2023-01-20T22:53:58.346Z,101547.50
2023-01-20T22:56:32.022Z,101547.81
2023-01-20T22:59:01.380Z,101547.66
2023-01-20T23:01:43.697Z,101551.72
2023-01-20T23:04:21.049Z,101550.22
2023-01-20T23:06:50.083Z,101539.31
2023-01-20T23:09:22.822Z,101543.13
2023-01-20T23:11:51.186Z,101545.66
2023-01-20T23:14:41.455Z,101554.56
2023-01-20T23:17:11.112Z,101563.28
2023-01-20T23:19:56.398Z,101576.44
2023-01-20T23:22:27.151Z,101564.78
2023-01-20T23:24:57.525Z,101552.25
2023-01-20T23:27:26.013Z,101560.13
2023-01-20T23:29:56.299Z,101557.47
2023-01-20T23:32:25.160Z,101556.28
2023-01-20T23:34:57.086Z,101565.09
2023-01-20T23:37:26.273Z,101574.75
2023-01-20T23:39:56.550Z,101560.13
2023-01-20T23:42:28.499Z,101556.94
2023-01-20T23:45:00.631Z,101564.56
2023-01-20T23:47:29.569Z,101553.31
2023-01-20T23:49:59.233Z,101556.16
2023-01-20T23:52:29.564Z,101545.91
2023-01-20T23:54:58.110Z,101543.13
2023-01-20T23:57:27.244Z,101536.34
2023-01-20T23:59:56.945Z,101551.41
